Time;durP1;ratioP1;P1;durP2;ratioP2;P2;SDS_P1;SDS_P2;PMS_P1;PMS_P2;Temp;Humidity;BMP_temperature;BMP_pressure;BME280_temperature;BME280_humidity;BME280_pressure;Samples;Min_cycle;Max_cycle;Signal;HPM_P1;HPM_P2
2023/08/27 00:01:02;;;;;;;3.28;2.53;;;;;;;13.83;nan;101012.06;5043800;28;20816;-75
2023/08/27 00:03:27;;;;;;;4.18;2.90;;;;;;;13.79;nan;101008.69;5042236;28;20028;-75
2023/08/27 00:05:53;;;;;;;6.03;3.35;;;;;;;13.75;nan;101001.84;5045252;28;20025;-75
2023/08/27 00:08:18;;;;;;;4.85;3.33;;;;;;;13.67;nan;100980.31;5048910;28;20029;-76
2023/08/27 00:10:43;;;;;;;5.25;3.38;;;;;;;13.62;nan;100976.13;5040597;28;20196;-76
2023/08/27 00:13:09;;;;;;;5.60;3.65;;;;;;;13.62;nan;100966.50;5044075;28;20025;-76
2023/08/27 00:15:34;;;;;;;4.10;3.13;;;;;;;13.64;nan;100964.69;5041499;28;20480;-76
2023/08/27 00:18:00;;;;;;;6.07;3.65;;;;;;;13.55;nan;100958.00;5040217;28;20021;-76
2023/08/27 00:20:25;;;;;;;7.47;3.45;;;;;;;13.53;nan;100953.72;5043693;28;20029;-76
2023/08/27 00:22:50;;;;;;;4.25;3.47;;;;;;;13.49;nan;100939.88;5039652;28;20022;-76
2023/08/27 00:25:16;;;;;;;6.47;3.22;;;;;;;13.51;nan;100921.50;5044763;28;20036;-76
2023/08/27 00:27:42;;;;;;;5.18;3.25;;;;;;;13.47;nan;100923.38;5043014;28;20051;-76
2023/08/27 00:30:08;;;;;;;4.72;3.40;;;;;;;13.41;nan;100920.94;5041847;28;20041;-76
2023/08/27 00:32:33;;;;;;;3.75;3.30;;;;;;;13.37;nan;100915.84;5039358;28;20034;-75
2023/08/27 00:35:03;;;;;;;7.13;3.67;;;;;;;13.34;nan;100925.53;5035785;28;20469;-76
2023/08/27 00:37:29;;;;;;;5.97;3.30;;;;;;;13.33;nan;100920.34;5042677;28;20098;-76
2023/08/27 00:39:54;;;;;;;4.68;2.95;;;;;;;13.24;nan;100907.50;5042729;28;20468;-76
2023/08/27 00:42:19;;;;;;;3.53;2.50;;;;;;;13.16;nan;100912.16;5043782;28;20025;-76
2023/08/27 00:44:45;;;;;;;3.22;2.50;;;;;;;13.10;nan;100906.22;5043588;28;20586;-76
2023/08/27 00:47:11;;;;;;;3.55;2.90;;;;;;;13.04;nan;100905.56;5042802;28;20018;-76
2023/08/27 00:49:38;;;;;;;3.05;2.50;;;;;;;12.93;nan;100895.44;5042334;28;20113;-76
2023/08/27 00:52:05;;;;;;;4.38;2.63;;;;;;;12.86;nan;100905.25;5046182;28;20396;-76
2023/08/27 00:54:31;;;;;;;3.47;2.60;;;;;;;12.85;nan;100900.06;5042485;28;20096;-75
2023/08/27 00:56:57;;;;;;;4.40;3.00;;;;;;;12.79;nan;100892.44;5044477;28;20120;-75
2023/08/27 00:59:23;;;;;;;3.88;2.50;;;;;;;12.79;nan;100893.28;5041419;28;20068;-75
2023/08/27 01:01:48;;;;;;;4.38;2.80;;;;;;;12.82;nan;100898.41;5046197;28;20068;-75
2023/08/27 01:04:14;;;;;;;5.43;3.13;;;;;;;12.84;nan;100899.22;5039136;28;20118;-75
2023/08/27 01:06:39;;;;;;;4.85;3.20;;;;;;;12.82;nan;100895.81;5042110;28;20032;-75
2023/08/27 01:09:20;;;;;;;4.63;2.72;;;;;;;12.74;nan;100905.63;5042108;28;20135;-75
2023/08/27 01:12:11;;;;;;;5.65;2.85;;;;;;;12.71;nan;100892.66;5041594;28;20188;-75
2023/08/27 01:14:37;;;;;;;3.75;2.50;;;;;;;12.67;nan;100890.19;5037558;28;20101;-76
2023/08/27 01:17:06;;;;;;;5.43;3.08;;;;;;;12.58;nan;100892.19;5039611;28;20033;-76
2023/08/27 01:19:33;;;;;;;2.85;2.50;;;;;;;12.56;nan;100890.53;5036716;28;20095;-75
2023/08/27 01:21:58;;;;;;;3.65;2.72;;;;;;;12.53;nan;100886.25;5026895;28;20062;-75
2023/08/27 01:24:24;;;;;;;6.60;2.72;;;;;;;12.52;nan;100888.91;5043215;28;20032;-75
2023/08/27 01:27:02;;;;;;;4.38;2.95;;;;;;;12.50;nan;100893.34;5042799;28;20072;-75
2023/08/27 01:29:48;;;;;;;7.05;2.58;;;;;;;12.38;nan;100878.88;5046863;28;20031;-75
2023/08/27 01:32:31;;;;;;;4.00;2.63;;;;;;;12.38;nan;100882.31;5045985;28;20021;-75
2023/08/27 01:34:57;;;;;;;3.40;2.50;;;;;;;12.40;nan;100877.06;5045953;28;20035;-75
2023/08/27 01:37:23;;;;;;;4.35;2.67;;;;;;;12.37;nan;100880.63;5049100;28;20087;-75
2023/08/27 01:40:05;;;;;;;3.58;2.63;;;;;;;12.40;nan;100883.16;5045048;28;20427;-75
2023/08/27 01:42:32;;;;;;;4.10;2.55;;;;;;;12.37;nan;100875.41;5033622;28;20037;-75
2023/08/27 01:44:57;;;;;;;4.22;2.40;;;;;;;12.34;nan;100883.31;5045711;28;20037;-75
2023/08/27 01:47:24;;;;;;;2.90;2.60;;;;;;;12.34;nan;100872.88;5045942;28;20033;-76
2023/08/27 01:49:51;;;;;;;3.92;2.60;;;;;;;12.48;nan;100880.28;5045958;28;20500;-75
2023/08/27 01:52:16;;;;;;;4.70;2.47;;;;;;;12.51;nan;100872.34;5046033;28;20056;-75
2023/08/27 01:54:42;;;;;;;3.92;2.55;;;;;;;12.57;nan;100869.56;5042156;28;20022;-75
2023/08/27 01:57:07;;;;;;;4.45;2.60;;;;;;;12.55;nan;100875.72;5040851;28;20020;-75
2023/08/27 01:59:33;;;;;;;4.90;2.70;;;;;;;12.57;nan;100868.69;5042454;28;20396;-75
2023/08/27 02:01:58;;;;;;;2.80;2.45;;;;;;;12.58;nan;100868.63;5046234;28;20070;-75
2023/08/27 02:04:24;;;;;;;3.63;3.00;;;;;;;12.63;nan;100869.38;5039838;28;20072;-75
2023/08/27 02:06:49;;;;;;;2.85;2.45;;;;;;;12.63;nan;100861.50;5048771;28;20025;-75
2023/08/27 02:09:15;;;;;;;4.80;2.88;;;;;;;12.65;nan;100861.44;5042493;28;20041;-75
2023/08/27 02:11:41;;;;;;;3.95;2.72;;;;;;;12.66;nan;100868.41;5050219;28;20036;-75
2023/08/27 02:14:06;;;;;;;4.43;2.97;;;;;;;12.65;nan;100879.75;5042872;28;20025;-75
2023/08/27 02:16:34;;;;;;;4.80;3.30;;;;;;;12.70;nan;100877.88;5044915;28;20056;-75
2023/08/27 02:18:59;;;;;;;3.45;3.15;;;;;;;12.70;nan;100879.63;5047258;28;20021;-75
2023/08/27 02:21:24;;;;;;;4.30;2.97;;;;;;;12.73;nan;100877.78;5049276;28;20044;-75
2023/08/27 02:23:50;;;;;;;3.90;3.50;;;;;;;12.72;nan;100878.69;5043694;28;20037;-75
2023/08/27 02:26:15;;;;;;;4.50;3.10;;;;;;;12.77;nan;100866.31;5038196;28;20028;-75
2023/08/27 02:28:41;;;;;;;5.25;3.75;;;;;;;12.78;nan;100868.00;5040098;28;20048;-75
2023/08/27 02:31:08;;;;;;;5.20;3.47;;;;;;;12.78;nan;100872.38;5037307;28;20464;-75
2023/08/27 02:33:33;;;;;;;5.47;3.97;;;;;;;12.80;nan;100874.06;5043644;28;20029;-76
2023/08/27 02:35:59;;;;;;;4.30;3.80;;;;;;;12.88;nan;100881.66;5042040;28;20029;-76
2023/08/27 02:38:24;;;;;;;6.65;4.05;;;;;;;12.86;nan;100876.47;5045081;28;20472;-76
2023/08/27 02:40:50;;;;;;;4.78;4.25;;;;;;;12.89;nan;100878.16;5045247;28;20045;-76
2023/08/27 02:43:15;;;;;;;5.93;4.25;;;;;;;12.97;nan;100877.88;5038954;28;20040;-76
2023/08/27 02:45:41;;;;;;;6.72;4.47;;;;;;;12.95;nan;100880.56;5037605;28;20038;-76
2023/08/27 02:48:07;;;;;;;6.07;4.57;;;;;;;12.92;nan;100879.81;5033129;28;20472;-76
2023/08/27 02:50:32;;;;;;;5.18;4.45;;;;;;;12.96;nan;100878.81;5044045;28;20025;-76
2023/08/27 02:52:57;;;;;;;6.22;4.55;;;;;;;12.98;nan;100879.59;5044934;28;20025;-76
2023/08/27 02:55:23;;;;;;;11.75;4.85;;;;;;;12.96;nan;100884.03;5044694;28;20026;-76
2023/08/27 02:57:48;;;;;;;5.35;4.50;;;;;;;12.98;nan;100879.59;5044024;28;20033;-76
2023/08/27 03:00:14;;;;;;;9.65;5.50;;;;;;;12.93;nan;100877.13;5043523;28;20031;-76
2023/08/27 03:02:40;;;;;;;6.03;4.80;;;;;;;12.95;nan;100877.06;5044557;28;20104;-75
2023/08/27 03:05:05;;;;;;;6.20;4.82;;;;;;;12.93;nan;100876.28;5041526;28;20107;-75
2023/08/27 03:07:30;;;;;;;6.07;4.78;;;;;;;12.93;nan;100864.03;5042655;28;20033;-76
2023/08/27 03:09:56;;;;;;;6.28;4.90;;;;;;;12.94;nan;100864.91;5048636;28;20060;-76
2023/08/27 03:12:22;;;;;;;7.60;4.53;;;;;;;13.01;nan;100880.34;5041632;28;20025;-76
2023/08/27 03:14:47;;;;;;;7.88;4.85;;;;;;;13.00;nan;100872.56;5043735;28;20036;-76
2023/08/27 03:17:13;;;;;;;6.43;4.57;;;;;;;12.99;nan;100881.31;5044224;28;20030;-75
2023/08/27 03:19:38;;;;;;;7.93;4.68;;;;;;;13.00;nan;100888.25;5041819;28;20072;-76
2023/08/27 03:22:03;;;;;;;7.57;4.95;;;;;;;13.02;nan;100884.69;5046762;28;20040;-75
2023/08/27 03:24:29;;;;;;;7.47;4.60;;;;;;;13.02;nan;100891.69;5041389;28;20496;-76
2023/08/27 03:26:54;;;;;;;8.07;5.07;;;;;;;13.03;nan;100898.63;5046835;28;20036;-76
2023/08/27 03:29:21;;;;;;;6.57;4.85;;;;;;;13.03;nan;100894.25;5041411;28;20388;-76
2023/08/27 03:31:46;;;;;;;8.68;5.22;;;;;;;13.06;nan;100898.53;5046199;28;20036;-76
2023/08/27 03:34:12;;;;;;;10.80;5.93;;;;;;;13.08;nan;100886.25;5041169;28;20026;-76
2023/08/27 03:36:37;;;;;;;11.00;6.10;;;;;;;13.10;nan;100887.88;5045404;28;20041;-76
2023/08/27 03:39:04;;;;;;;9.43;5.38;;;;;;;13.08;nan;100874.03;5042340;28;20506;-76
2023/08/27 03:41:29;;;;;;;10.23;5.88;;;;;;;13.09;nan;100860.00;5038765;28;20064;-76
2023/08/27 03:43:56;;;;;;;8.63;5.32;;;;;;;13.06;nan;100847.03;5045696;28;20048;-76
2023/08/27 03:46:21;;;;;;;8.23;5.63;;;;;;;13.13;nan;100847.69;5039813;28;20029;-76
2023/08/27 03:48:46;;;;;;;7.78;5.43;;;;;;;13.07;nan;100845.25;5037947;28;20037;-76
2023/08/27 03:51:12;;;;;;;10.45;5.85;;;;;;;13.05;nan;100840.09;5042133;28;20049;-76
2023/08/27 03:53:37;;;;;;;8.63;5.20;;;;;;;13.17;nan;100853.66;5039431;28;20036;-76
2023/08/27 03:56:03;;;;;;;6.80;5.40;;;;;;;13.05;nan;100845.34;5035380;28;20037;-76
2023/08/27 03:58:29;;;;;;;10.07;5.38;;;;;;;13.00;nan;100831.53;5042892;28;20056;-76
2023/08/27 04:00:54;;;;;;;9.38;5.57;;;;;;;13.08;nan;100836.53;5038207;28;20075;-76
2023/08/27 04:03:19;;;;;;;7.25;5.00;;;;;;;13.00;nan;100828.06;5035829;28;20480;-76
2023/08/27 04:05:49;;;;;;;5.75;4.88;;;;;;;13.02;nan;100845.44;5040687;28;20078;-76
2023/08/27 04:08:14;;;;;;;11.63;5.07;;;;;;;12.99;nan;100847.31;5043307;28;20543;-76
2023/08/27 04:10:47;;;;;;;8.02;4.90;;;;;;;12.95;nan;100838.69;5044269;28;20104;-76
2023/08/27 04:13:12;;;;;;;5.82;4.53;;;;;;;12.99;nan;100837.69;5036825;28;20543;-76
2023/08/27 04:15:38;;;;;;;7.18;4.50;;;;;;;12.95;nan;100849.16;5038960;28;20167;-76
2023/08/27 04:18:03;;;;;;;9.13;5.05;;;;;;;12.95;nan;100843.94;5034593;28;20037;-76
2023/08/27 04:20:30;;;;;;;8.13;5.18;;;;;;;12.97;nan;100854.34;5032247;28;20026;-75
2023/08/27 04:22:55;;;;;;;9.18;4.82;;;;;;;12.92;nan;100857.13;5042139;28;20036;-75
2023/08/27 04:25:20;;;;;;;13.25;5.05;;;;;;;12.97;nan;100864.81;5043930;28;20033;-76
2023/08/27 04:27:46;;;;;;;8.68;4.93;;;;;;;12.94;nan;100842.19;5037290;28;20041;-76
2023/08/27 04:30:12;;;;;;;8.68;4.82;;;;;;;12.95;nan;100853.50;5043809;28;20020;-76
2023/08/27 04:32:37;;;;;;;9.60;4.68;;;;;;;12.94;nan;100844.81;5041078;28;20029;-76
2023/08/27 04:35:04;;;;;;;6.85;4.35;;;;;;;12.90;nan;100851.06;5042381;28;20029;-76
2023/08/27 04:37:29;;;;;;;6.80;4.32;;;;;;;12.95;nan;100846.56;5044277;28;20041;-76
2023/08/27 04:39:55;;;;;;;8.57;4.60;;;;;;;12.92;nan;100851.03;5035959;28;20036;-76
2023/08/27 04:42:20;;;;;;;7.03;4.47;;;;;;;12.89;nan;100847.59;5045693;28;20880;-75
2023/08/27 04:44:45;;;;;;;7.68;4.15;;;;;;;12.85;nan;100851.22;5039463;28;20030;-76
2023/08/27 04:47:11;;;;;;;7.15;4.15;;;;;;;12.84;nan;100846.88;5041367;28;20021;-75
2023/08/27 04:49:36;;;;;;;6.50;4.20;;;;;;;12.84;nan;100853.88;5041692;28;20109;-76
2023/08/27 04:52:03;;;;;;;10.30;4.53;;;;;;;12.85;nan;100859.06;5041247;28;20043;-76
2023/08/27 04:54:29;;;;;;;8.52;4.32;;;;;;;12.83;nan;100854.78;5036859;28;20030;-76
2023/08/27 04:56:54;;;;;;;10.50;4.90;;;;;;;12.79;nan;100867.13;5044840;28;20047;-75
2023/08/27 04:59:20;;;;;;;6.20;4.30;;;;;;;12.75;nan;100873.38;5041809;28;20483;-75
2023/08/27 05:01:45;;;;;;;7.50;4.40;;;;;;;12.75;nan;100878.59;5036678;28;20029;-75
2023/08/27 05:04:11;;;;;;;8.50;4.43;;;;;;;12.71;nan;100876.97;5042733;28;20422;-75
2023/08/27 05:06:36;;;;;;;6.80;4.25;;;;;;;12.77;nan;100882.00;5039839;28;20052;-75
2023/08/27 05:09:01;;;;;;;8.40;4.35;;;;;;;12.78;nan;100878.47;5045875;28;20032;-75
2023/08/27 05:11:27;;;;;;;7.70;4.60;;;;;;;12.81;nan;100877.53;5042254;28;20090;-76
2023/08/27 05:13:52;;;;;;;6.47;4.75;;;;;;;12.83;nan;100881.81;5040249;28;20037;-75
2023/08/27 05:16:17;;;;;;;8.32;4.85;;;;;;;12.86;nan;100881.72;5044343;28;20053;-75
2023/08/27 05:18:43;;;;;;;10.10;4.97;;;;;;;12.86;nan;100871.25;5040814;28;20483;-76
2023/08/27 05:21:08;;;;;;;9.15;4.95;;;;;;;12.87;nan;100877.31;5042873;28;20108;-75
2023/08/27 05:23:33;;;;;;;8.95;5.80;;;;;;;12.86;nan;100871.25;5037448;28;20112;-75
2023/08/27 05:25:59;;;;;;;9.23;5.35;;;;;;;12.89;nan;100881.63;5040903;28;20031;-75
2023/08/27 05:28:24;;;;;;;8.20;5.63;;;;;;;12.92;nan;100880.66;5043738;28;20052;-75
2023/08/27 05:30:50;;;;;;;9.55;5.78;;;;;;;12.91;nan;100875.47;5040769;28;20064;-75
2023/08/27 05:33:15;;;;;;;8.52;5.82;;;;;;;12.94;nan;100872.75;5042810;28;20025;-76
2023/08/27 05:35:41;;;;;;;9.90;5.82;;;;;;;12.93;nan;100866.66;5042049;28;20082;-75
2023/08/27 05:38:08;;;;;;;9.65;6.55;;;;;;;12.91;nan;100863.22;5042597;28;20032;-76
2023/08/27 05:40:33;;;;;;;11.13;6.10;;;;;;;12.91;nan;100873.69;5037516;28;20113;-75
2023/08/27 05:42:58;;;;;;;10.48;6.25;;;;;;;12.89;nan;100868.53;5040913;28;20108;-75
2023/08/27 05:45:24;;;;;;;8.10;5.65;;;;;;;12.90;nan;100877.22;5038822;28;20472;-75
2023/08/27 05:47:49;;;;;;;10.05;6.28;;;;;;;12.88;nan;100874.69;5039781;28;20014;-75
2023/08/27 05:50:14;;;;;;;11.13;6.43;;;;;;;12.88;nan;100874.69;5042121;28;20029;-76
2023/08/27 05:52:40;;;;;;;11.40;6.70;;;;;;;12.94;nan;100870.13;5041066;28;20032;-76
2023/08/27 05:55:05;;;;;;;12.63;6.38;;;;;;;12.94;nan;100868.38;5040322;28;20048;-75
2023/08/27 05:57:30;;;;;;;10.20;6.00;;;;;;;12.94;nan;100868.38;5047674;28;20044;-75
2023/08/27 05:59:56;;;;;;;9.32;5.65;;;;;;;12.92;nan;100866.72;5040415;28;20032;-76
2023/08/27 06:02:21;;;;;;;12.10;6.45;;;;;;;12.91;nan;100865.84;5047351;28;20037;-76
2023/08/27 06:04:46;;;;;;;8.38;6.30;;;;;;;12.91;nan;100860.63;5035842;28;20475;-76
2023/08/27 06:07:12;;;;;;;10.20;6.18;;;;;;;13.01;nan;100861.16;5040483;28;20021;-75
2023/08/27 06:09:37;;;;;;;11.35;6.50;;;;;;;13.08;nan;100865.31;5042477;28;20484;-76
2023/08/27 06:12:04;;;;;;;9.25;6.35;;;;;;;13.08;nan;100857.47;5046588;28;21628;-76
2023/08/27 06:14:29;;;;;;;11.43;6.50;;;;;;;13.05;nan;100852.34;5043040;28;20175;-76
2023/08/27 06:16:55;;;;;;;8.30;5.97;;;;;;;13.03;nan;100857.59;5048206;28;20112;-76
2023/08/27 06:19:20;;;;;;;8.57;6.25;;;;;;;13.05;nan;100854.94;5042472;28;20073;-75
2023/08/27 06:21:45;;;;;;;9.40;6.43;;;;;;;13.06;nan;100847.03;5048709;28;20116;-75
2023/08/27 06:24:11;;;;;;;9.18;6.50;;;;;;;13.05;nan;100845.34;5043528;28;20070;-75
2023/08/27 06:26:37;;;;;;;11.90;6.05;;;;;;;13.11;nan;100849.47;5049307;28;20415;-75
2023/08/27 06:29:04;;;;;;;9.30;6.05;;;;;;;13.10;nan;100839.94;5039473;28;20037;-75
2023/08/27 06:31:29;;;;;;;10.63;6.70;;;;;;;13.12;nan;100846.81;5042425;28;20045;-75
2023/08/27 06:33:54;;;;;;;10.38;6.40;;;;;;;13.17;nan;100844.03;5046159;28;20392;-75
2023/08/27 06:36:20;;;;;;;6.75;5.70;;;;;;;13.17;nan;100848.44;5045279;28;20052;-75
2023/08/27 06:38:45;;;;;;;9.93;6.18;;;;;;;13.22;nan;100844.75;5046215;28;20029;-75
2023/08/27 06:41:10;;;;;;;9.40;6.57;;;;;;;13.25;nan;100843.84;5037730;28;20030;-75
2023/08/27 06:43:36;;;;;;;9.00;6.78;;;;;;;13.30;nan;100845.34;5045437;28;20025;-76
2023/08/27 06:46:02;;;;;;;10.73;7.13;;;;;;;13.33;nan;100849.63;5044307;28;20025;-75
2023/08/27 06:48:27;;;;;;;10.30;6.32;;;;;;;13.38;nan;100844.25;5042138;28;20022;-75
2023/08/27 06:50:53;;;;;;;10.25;6.72;;;;;;;13.41;nan;100854.63;5042069;28;20409;-75
2023/08/27 06:53:19;;;;;;;12.75;6.75;;;;;;;13.43;nan;100853.66;5045011;28;20064;-75
2023/08/27 06:55:44;;;;;;;12.05;7.07;;;;;;;13.48;nan;100848.28;5044659;28;20032;-75
2023/08/27 06:58:09;;;;;;;11.43;7.30;;;;;;;13.54;nan;100859.38;5031908;28;20029;-75
2023/08/27 07:00:35;;;;;;;8.63;6.90;;;;;;;13.59;nan;100848.72;5045714;28;20024;-75
2023/08/27 07:03:01;;;;;;;12.40;7.63;;;;;;;13.58;nan;100844.41;5039661;28;20125;-75
2023/08/27 07:05:26;;;;;;;12.95;7.38;;;;;;;13.68;nan;100860.66;5047897;28;20112;-75
2023/08/27 07:07:52;;;;;;;14.63;7.75;;;;;;;13.74;nan;100856.03;5045700;28;20025;-75
2023/08/27 07:10:17;;;;;;;10.18;7.40;;;;;;;13.80;nan;100860.22;5041758;28;20491;-75
2023/08/27 07:12:43;;;;;;;11.65;7.47;;;;;;;13.84;nan;100855.72;5045026;28;20033;-75
2023/08/27 07:15:08;;;;;;;13.82;7.43;;;;;;;13.81;nan;100860.13;5044963;28;20488;-75
2023/08/27 07:17:34;;;;;;;11.73;7.15;;;;;;;13.85;nan;100854.78;5043282;28;20033;-76
2023/08/27 07:20:00;;;;;;;12.93;7.25;;;;;;;13.91;nan;100858.03;5045485;28;20028;-76
2023/08/27 07:22:26;;;;;;;10.90;7.18;;;;;;;13.97;nan;100852.56;5042845;28;20033;-76
2023/08/27 07:24:52;;;;;;;13.68;6.80;;;;;;;13.97;nan;100857.81;5044281;28;20037;-75
2023/08/27 07:27:17;;;;;;;9.80;7.10;;;;;;;14.04;nan;100847.94;5045778;28;20041;-75
2023/08/27 07:29:43;;;;;;;13.02;7.45;;;;;;;14.10;nan;100852.97;5041751;28;20029;-75
2023/08/27 07:32:08;;;;;;;12.32;8.38;;;;;;;14.14;nan;100858.94;5047510;28;20025;-75
2023/08/27 07:34:34;;;;;;;13.07;8.05;;;;;;;14.20;nan;100856.09;5041786;28;20029;-75
2023/08/27 07:36:59;;;;;;;14.35;8.00;;;;;;;14.23;nan;100862.06;5048147;28;20479;-75
2023/08/27 07:39:24;;;;;;;12.27;8.77;;;;;;;14.22;nan;100854.25;5040765;28;20037;-75
2023/08/27 07:41:50;;;;;;;12.38;7.85;;;;;;;14.32;nan;100858.22;5048410;28;20061;-75
2023/08/27 07:44:16;;;;;;;13.10;9.15;;;;;;;14.39;nan;100851.84;5040066;28;20063;-74
2023/08/27 07:46:42;;;;;;;16.88;9.93;;;;;;;14.57;nan;100852.91;5045894;28;20117;-75
2023/08/27 07:49:08;;;;;;;15.90;9.63;;;;;;;14.57;nan;100859.94;5038725;28;20033;-75
2023/08/27 07:51:33;;;;;;;15.10;9.50;;;;;;;14.65;nan;100855.22;5043393;28;20029;-75
2023/08/27 07:53:59;;;;;;;13.73;9.73;;;;;;;14.56;nan;100860.84;5038386;28;20028;-75
2023/08/27 07:56:25;;;;;;;16.05;9.60;;;;;;;14.63;nan;100864.94;5043877;28;20075;-75
2023/08/27 07:58:50;;;;;;;15.70;10.35;;;;;;;15.02;nan;100859.84;5038574;28;20514;-75
2023/08/27 08:01:16;;;;;;;18.58;10.70;;;;;;;15.21;nan;100850.28;5036639;28;20030;-75
2023/08/27 08:03:41;;;;;;;14.82;10.25;;;;;;;15.37;nan;100852.25;5040706;28;20100;-75
2023/08/27 08:06:07;;;;;;;17.10;10.70;;;;;;;15.39;nan;100853.03;5045565;28;20021;-75
2023/08/27 08:08:33;;;;;;;15.15;10.50;;;;;;;15.55;nan;100846.19;5042479;28;20037;-74
2023/08/27 08:10:59;;;;;;;15.13;10.20;;;;;;;15.56;nan;100842.63;5044553;28;20029;-75
2023/08/27 08:13:24;;;;;;;11.15;8.63;;;;;;;15.43;nan;100854.59;5039456;28;20021;-75
2023/08/27 08:15:50;;;;;;;11.73;8.50;;;;;;;15.21;nan;100847.66;5041474;28;20133;-75
2023/08/27 08:18:16;;;;;;;9.73;8.20;;;;;;;15.07;nan;100852.59;5044458;28;20110;-75
2023/08/27 08:20:42;;;;;;;12.68;8.95;;;;;;;14.98;nan;100856.50;5033865;28;20056;-75
2023/08/27 08:23:07;;;;;;;13.55;8.35;;;;;;;15.02;nan;100867.72;5037922;28;20115;-75
2023/08/27 08:25:33;;;;;;;12.32;8.50;;;;;;;15.11;nan;100854.22;5032893;28;20037;-75
2023/08/27 08:27:59;;;;;;;16.40;8.70;;;;;;;15.12;nan;100852.44;5038008;28;20056;-75
2023/08/27 08:30:24;;;;;;;14.20;8.35;;;;;;;15.14;nan;100861.97;5038522;28;20480;-74
2023/08/27 08:32:51;;;;;;;12.02;7.82;;;;;;;15.28;nan;100860.53;5039121;28;20030;-74
2023/08/27 08:35:16;;;;;;;10.90;7.75;;;;;;;15.46;nan;100857.94;5035142;28;20032;-74
2023/08/27 08:37:42;;;;;;;9.85;7.05;;;;;;;15.68;nan;100860.50;5036433;28;20037;-74
2023/08/27 08:40:09;;;;;;;9.02;7.38;;;;;;;16.07;nan;100861.41;5042643;28;20065;-74
2023/08/27 08:42:43;;;;;;;8.60;7.07;;;;;;;16.25;nan;100862.31;5040357;28;20439;-74
2023/08/27 08:45:17;;;;;;;12.00;6.80;;;;;;;16.25;nan;100859.69;5041306;28;20036;-74
2023/08/27 08:47:43;;;;;;;8.43;5.60;;;;;;;16.35;nan;100861.00;5043601;28;20116;-74
2023/08/27 08:50:12;;;;;;;12.43;5.70;;;;;;;16.61;nan;100857.97;5041149;28;20037;-74
2023/08/27 08:52:42;;;;;;;8.43;5.13;;;;;;;16.79;nan;100858.03;5049814;28;20035;-74
2023/08/27 08:55:10;;;;;;;6.63;4.68;;;;;;;16.91;nan;100860.06;5040998;28;20033;-74
2023/08/27 08:57:44;;;;;;;6.72;4.55;;;;;;;17.12;nan;100852.00;5046274;28;20026;-74
2023/08/27 09:00:11;;;;;;;9.15;4.22;;;;;;;17.38;nan;100843.63;5037626;28;20021;-74
2023/08/27 09:02:39;;;;;;;6.40;4.30;;;;;;;17.56;nan;100860.28;5032833;28;20017;-74
2023/08/27 09:05:06;;;;;;;5.22;4.00;;;;;;;17.52;nan;100850.81;5040201;28;20031;-74
2023/08/27 09:07:33;;;;;;;5.57;3.40;;;;;;;17.53;nan;100847.25;5041884;28;20025;-74
2023/08/27 09:10:00;;;;;;;4.88;3.45;;;;;;;17.40;nan;100848.84;5045805;28;20068;-73
2023/08/27 09:12:27;;;;;;;4.57;3.00;;;;;;;17.12;nan;100838.84;5040841;28;20037;-73
2023/08/27 09:14:54;;;;;;;7.82;3.60;;;;;;;16.76;nan;100845.00;5043174;28;20036;-73
2023/08/27 09:17:20;;;;;;;6.25;3.65;;;;;;;16.50;nan;100843.63;5041849;28;20073;-74
2023/08/27 09:19:46;;;;;;;5.22;3.15;;;;;;;16.61;nan;100841.31;5033006;28;20025;-73
2023/08/27 09:22:13;;;;;;;6.93;3.70;;;;;;;16.91;nan;100833.72;5041538;28;20475;-73
2023/08/27 09:24:39;;;;;;;4.82;3.13;;;;;;;17.48;nan;100830.81;5039650;28;20033;-73
2023/08/27 09:27:05;;;;;;;5.72;3.45;;;;;;;17.68;nan;100835.03;5045018;28;20029;-73
2023/08/27 09:29:32;;;;;;;7.57;3.13;;;;;;;17.69;nan;100818.28;5039510;28;20103;-73
2023/08/27 09:31:57;;;;;;;6.28;3.13;;;;;;;17.51;nan;100826.25;5045176;28;20471;-73
2023/08/27 09:34:22;;;;;;;6.05;3.00;;;;;;;17.23;nan;100820.69;5030547;28;20083;-73
2023/08/27 09:36:48;;;;;;;7.60;3.20;;;;;;;16.97;nan;100822.91;5031503;28;20063;-74
2023/08/27 09:39:13;;;;;;;7.45;2.83;;;;;;;16.74;nan;100831.91;5025016;28;20036;-74
2023/08/27 09:41:46;;;;;;;6.13;2.70;;;;;;;16.47;nan;100822.72;5033843;28;20112;-74
2023/08/27 09:44:13;;;;;;;7.13;2.95;;;;;;;16.28;nan;100817.47;5041831;28;20040;-74
2023/08/27 09:46:40;;;;;;;15.75;2.92;;;;;;;16.28;nan;100817.47;5041598;28;20081;-74
2023/08/27 09:49:07;;;;;;;8.80;2.90;;;;;;;16.19;nan;100810.03;5046117;28;20028;-74
2023/08/27 09:51:35;;;;;;;7.88;3.08;;;;;;;16.06;nan;100813.25;5038161;28;20104;-74
2023/08/27 09:54:00;;;;;;;7.93;2.72;;;;;;;16.28;nan;100804.31;5047049;28;20024;-74
2023/08/27 09:56:27;;;;;;;5.07;2.90;;;;;;;16.27;nan;100811.34;5042554;28;20037;-74
2023/08/27 09:58:54;;;;;;;7.80;2.97;;;;;;;16.10;nan;100814.78;5044819;28;20826;-74
2023/08/27 10:01:21;;;;;;;5.35;2.35;;;;;;;16.02;nan;100816.94;5044589;28;20032;-74
2023/08/27 10:03:47;;;;;;;5.03;2.50;;;;;;;16.20;nan;100803.84;5037472;28;20069;-74
2023/08/27 10:06:13;;;;;;;4.53;2.22;;;;;;;16.52;nan;100812.81;5032545;28;20104;-74
2023/08/27 10:08:50;;;;;;;7.32;2.58;;;;;;;16.91;nan;100815.31;5036066;28;20172;-74
2023/08/27 10:11:16;;;;;;;6.15;2.72;;;;;;;17.31;nan;100802.72;5041376;28;20025;-74
2023/08/27 10:13:43;;;;;;;5.65;2.80;;;;;;;17.60;nan;100810.88;5034461;28;20033;-74
2023/08/27 10:16:11;;;;;;;6.35;2.15;;;;;;;17.52;nan;100793.66;5043998;28;20044;-75
2023/08/27 10:18:37;;;;;;;7.38;2.35;;;;;;;17.40;nan;100802.25;5030387;28;20033;-74
2023/08/27 10:21:03;;;;;;;6.40;2.00;;;;;;;17.30;nan;100808.94;5044009;28;20029;-74
2023/08/27 10:23:30;;;;;;;5.25;1.83;;;;;;;17.51;nan;100804.31;5045335;28;20479;-74
2023/08/27 10:25:58;;;;;;;5.35;2.10;;;;;;;17.78;nan;100804.63;5041194;28;20100;-74
2023/08/27 10:28:25;;;;;;;4.82;1.75;;;;;;;18.34;nan;100802.44;5044516;28;20043;-74
2023/08/27 10:30:52;;;;;;;5.75;2.03;;;;;;;18.86;nan;100800.31;5043967;28;20025;-74
2023/08/27 10:33:17;;;;;;;6.32;2.10;;;;;;;19.49;nan;100798.34;5042989;28;20026;-74
2023/08/27 10:35:47;;;;;;;8.40;2.08;;;;;;;19.65;nan;100801.78;5041214;28;20380;-74
2023/08/27 10:38:15;;;;;;;4.13;1.83;;;;;;;19.47;nan;100816.09;5033952;28;20037;-74
2023/08/27 10:40:44;;;;;;;4.00;1.55;;;;;;;19.02;nan;100810.00;5045351;28;20053;-74
2023/08/27 10:43:20;;;;;;;3.30;1.70;;;;;;;18.62;nan;100812.28;5045274;28;20100;-74
2023/08/27 10:45:47;;;;;;;3.47;1.45;;;;;;;18.21;nan;100812.84;5045752;28;20412;-74
2023/08/27 10:48:16;;;;;;;4.75;2.08;;;;;;;18.07;nan;100825.94;5048575;28;20029;-74
2023/08/27 10:50:47;;;;;;;4.00;1.75;;;;;;;17.98;nan;100822.00;5045629;28;20482;-74
2023/08/27 10:53:13;;;;;;;4.35;2.05;;;;;;;17.86;nan;100817.44;5044396;28;20032;-74
2023/08/27 10:55:40;;;;;;;3.72;1.48;;;;;;;17.86;nan;100818.28;5045527;28;20032;-74
2023/08/27 10:58:15;;;;;;;5.35;1.52;;;;;;;17.94;nan;100809.94;5043659;28;20037;-74
2023/08/27 11:01:06;;;;;;;5.32;1.70;;;;;;;17.90;nan;100811.88;5032795;28;20468;-74
2023/08/27 11:04:04;;;;;;;5.43;1.75;;;;;;;17.97;nan;100807.97;5041336;28;20060;-74
2023/08/27 11:06:44;;;;;;;3.75;1.80;;;;;;;18.34;nan;100805.94;5048244;28;20029;-74
2023/08/27 11:09:12;;;;;;;2.65;1.60;;;;;;;19.07;nan;100807.94;5037267;28;20451;-74
2023/08/27 11:12:03;;;;;;;2.00;1.30;;;;;;;19.63;nan;100806.28;5048349;28;20033;-74
2023/08/27 11:14:35;;;;;;;3.22;1.20;;;;;;;19.66;nan;100814.06;5039573;28;20381;-76
2023/08/27 11:17:04;;;;;;;3.67;1.75;;;;;;;19.53;nan;100807.81;5046387;28;20033;-74
2023/08/27 11:19:35;;;;;;;1.75;1.10;;;;;;;19.15;nan;100816.25;5042588;28;20033;-74
2023/08/27 11:22:20;;;;;;;3.75;1.30;;;;;;;18.47;nan;100836.00;5047465;28;20104;-74
2023/08/27 11:24:47;;;;;;;3.85;1.45;;;;;;;17.40;nan;100862.84;5043204;28;20038;-75
2023/08/27 11:27:15;;;;;;;4.00;1.70;;;;;;;16.41;nan;100868.56;5046410;28;20033;-76
2023/08/27 11:29:42;;;;;;;4.70;1.90;;;;;;;15.84;nan;100865.94;5041918;28;20032;-77
2023/08/27 11:32:09;;;;;;;3.95;2.10;;;;;;;15.65;nan;100873.75;5047643;28;20029;-77
2023/08/27 11:34:39;;;;;;;5.28;2.25;;;;;;;15.73;nan;100872.59;5032153;28;20030;-76
2023/08/27 11:37:06;;;;;;;4.32;2.60;;;;;;;16.15;nan;100875.06;5047954;28;20380;-76